Time;durP1;ratioP1;P1;durP2;ratioP2;P2;SDS_P1;SDS_P2;PMS_P1;PMS_P2;Temp;Humidity;BMP_temperature;BMP_pressure;BME280_temperature;BME280_humidity;BME280_pressure;Samples;Min_cycle;Max_cycle;Signal;HPM_P1;HPM_P2
2023/01/05 00:01:48;;;;;;;20.13;4.30;;;;;;;;;;5012989;28;20418;-43
2023/01/05 00:04:14;;;;;;;18.40;4.83;;;;;;;;;;5011888;28;20502;-43
2023/01/05 00:06:40;;;;;;;25.37;5.93;;;;;;;;;;5012226;28;20529;-43
2023/01/05 00:09:07;;;;;;;21.77;5.47;;;;;;;;;;5007181;28;20463;-43
2023/01/05 00:22:37;;;;;;;15.33;4.43;;;;;;;;;;5007949;28;20473;-43
2023/01/05 00:25:18;;;;;;;17.60;4.57;;;;;;;;;;5011840;28;20419;-43
2023/01/05 00:27:45;;;;;;;15.20;4.70;;;;;;;;;;5004329;28;20875;-43
2023/01/05 00:30:12;;;;;;;17.53;4.30;;;;;;;;;;5003296;28;20438;-43
2023/01/05 00:32:38;;;;;;;17.60;4.57;;;;;;;;;;5012576;28;20827;-43
2023/01/05 00:35:04;;;;;;;18.30;5.23;;;;;;;;;;5012056;28;20499;-43
2023/01/05 00:37:32;;;;;;;14.90;4.73;;;;;;;;;;5011978;28;20833;-43
2023/01/05 00:39:58;;;;;;;23.90;5.20;;;;;;;;;;5005938;28;20419;-43
2023/01/05 00:42:24;;;;;;;18.03;3.70;;;;;;;;;;5012396;28;20465;-43
2023/01/05 00:44:50;;;;;;;14.10;4.90;;;;;;;;;;5012026;28;20467;-43
2023/01/05 00:47:16;;;;;;;13.73;4.43;;;;;;;;;;5008961;28;20419;-44
2023/01/05 00:49:42;;;;;;;12.57;4.17;;;;;;;;;;5012007;28;20447;-44
2023/01/05 00:52:08;;;;;;;13.03;4.90;;;;;;;;;;5010831;28;20411;-43
2023/01/05 00:54:34;;;;;;;12.80;4.43;;;;;;;;;;5007149;28;20442;-44
2023/01/05 00:57:00;;;;;;;16.07;4.40;;;;;;;;;;5004262;28;20411;-43
2023/01/05 00:59:26;;;;;;;19.27;5.27;;;;;;;;;;5010600;28;20489;-43
2023/01/05 01:01:56;;;;;;;17.67;4.00;;;;;;;;;;5011796;28;20570;-43
2023/01/05 01:04:22;;;;;;;19.60;5.27;;;;;;;;;;5007616;28;20538;-43
2023/01/05 01:06:48;;;;;;;10.10;4.87;;;;;;;;;;5011649;28;20502;-43
2023/01/05 01:09:14;;;;;;;20.73;5.10;;;;;;;;;;5008011;28;20931;-43
2023/01/05 01:11:40;;;;;;;20.23;5.10;;;;;;;;;;5007394;28;20536;-43
2023/01/05 01:14:06;;;;;;;9.50;3.60;;;;;;;;;;5011812;28;20491;-43
2023/01/05 01:16:33;;;;;;;14.53;5.70;;;;;;;;;;5011790;28;20427;-43
2023/01/05 01:18:59;;;;;;;20.00;4.23;;;;;;;;;;5007210;28;20814;-43
2023/01/05 01:21:25;;;;;;;15.53;5.20;;;;;;;;;;5011630;28;20473;-43
2023/01/05 01:23:51;;;;;;;15.63;4.43;;;;;;;;;;5004231;28;20428;-43
2023/01/05 01:26:17;;;;;;;13.10;4.00;;;;;;;;;;5010791;28;20415;-43
2023/01/05 01:28:46;;;;;;;19.97;4.27;;;;;;;;;;5011324;28;20463;-43
2023/01/05 01:31:11;;;;;;;16.73;6.00;;;;;;;;;;5004009;28;20425;-43
2023/01/05 01:33:38;;;;;;;16.33;5.20;;;;;;;;;;5011718;28;20557;-42
2023/01/05 01:36:05;;;;;;;16.17;4.27;;;;;;;;;;5011697;28;20433;-42
2023/01/05 01:38:31;;;;;;;14.27;4.80;;;;;;;;;;5012737;28;20466;-41
2023/01/05 01:40:57;;;;;;;18.97;4.50;;;;;;;;;;5015578;28;20841;-42
2023/01/05 01:43:38;;;;;;;14.07;4.20;;;;;;;;;;5013169;28;20453;-42
2023/01/05 01:46:04;;;;;;;24.30;5.37;;;;;;;;;;5014357;28;20996;-44
2023/01/05 01:48:30;;;;;;;17.83;4.53;;;;;;;;;;5011308;28;20439;-43
2023/01/05 01:50:56;;;;;;;15.40;4.53;;;;;;;;;;5014005;28;21082;-42
2023/01/05 01:53:25;;;;;;;16.83;5.60;;;;;;;;;;5015573;28;20463;-43
2023/01/05 01:55:53;;;;;;;14.17;6.30;;;;;;;;;;5015498;28;20413;-42
2023/01/05 01:58:20;;;;;;;15.13;4.10;;;;;;;;;;5015021;28;20431;-42
2023/01/05 02:00:46;;;;;;;20.30;4.40;;;;;;;;;;5011065;28;20502;-42
2023/01/05 02:03:13;;;;;;;20.90;5.73;;;;;;;;;;5014730;28;20899;-42
2023/01/05 02:05:39;;;;;;;14.53;5.40;;;;;;;;;;5010725;28;20411;-43
2023/01/05 02:08:24;;;;;;;28.73;5.87;;;;;;;;;;5014113;28;20518;-44
2023/01/05 02:10:50;;;;;;;16.80;5.50;;;;;;;;;;5013008;28;20477;-41
2023/01/05 02:13:37;;;;;;;14.87;5.70;;;;;;;;;;5015052;28;20466;-42
2023/01/05 02:16:09;;;;;;;19.50;5.10;;;;;;;;;;5015131;28;20411;-42
2023/01/05 02:18:54;;;;;;;17.33;5.43;;;;;;;;;;5010227;28;20437;-42
2023/01/05 02:21:28;;;;;;;16.40;5.40;;;;;;;;;;5008517;28;20437;-42
2023/01/05 02:23:57;;;;;;;24.00;5.73;;;;;;;;;;5014726;28;20418;-43
2023/01/05 02:26:26;;;;;;;13.23;5.00;;;;;;;;;;5012585;28;20509;-43
2023/01/05 02:28:58;;;;;;;22.77;4.53;;;;;;;;;;5014609;28;20441;-43
2023/01/05 02:31:25;;;;;;;36.13;6.53;;;;;;;;;;5014802;28;20426;-42
2023/01/05 02:33:59;;;;;;;15.00;5.00;;;;;;;;;;5007730;28;20443;-42
2023/01/05 02:36:29;;;;;;;23.63;5.03;;;;;;;;;;5014068;28;20443;-42
2023/01/05 02:39:02;;;;;;;16.63;5.20;;;;;;;;;;5012124;28;20433;-45
2023/01/05 02:41:34;;;;;;;24.43;4.93;;;;;;;;;;5014763;28;20414;-42
2023/01/05 02:44:01;;;;;;;13.43;4.13;;;;;;;;;;5014772;28;20410;-41
2023/01/05 02:46:27;;;;;;;20.57;5.00;;;;;;;;;;5009270;28;20423;-41
2023/01/05 02:48:55;;;;;;;15.73;4.63;;;;;;;;;;5013449;28;20438;-43
2023/01/05 02:51:27;;;;;;;22.03;5.00;;;;;;;;;;5013971;28;20445;-42
2023/01/05 02:53:57;;;;;;;31.30;5.90;;;;;;;;;;5014320;28;20468;-42
2023/01/05 02:56:42;;;;;;;24.43;6.70;;;;;;;;;;5014286;28;20415;-43
2023/01/05 02:59:17;;;;;;;16.77;4.90;;;;;;;;;;5008592;28;20428;-42
2023/01/05 03:01:46;;;;;;;11.37;4.70;;;;;;;;;;5014228;28;20449;-43
2023/01/05 03:04:15;;;;;;;23.30;5.10;;;;;;;;;;5005596;28;20419;-41
2023/01/05 03:06:45;;;;;;;15.83;5.57;;;;;;;;;;5014152;28;20771;-42
2023/01/05 03:09:12;;;;;;;20.20;5.13;;;;;;;;;;5006087;28;20457;-43
2023/01/05 03:14:51;;;;;;;25.30;5.83;;;;;;;;;;5009550;28;21006;-42
2023/01/05 03:17:20;;;;;;;27.07;5.17;;;;;;;;;;5013435;28;20533;-42
2023/01/05 03:19:46;;;;;;;11.53;4.00;;;;;;;;;;5013524;28;20499;-42
2023/01/05 03:36:18;;;;;;;21.27;4.37;;;;;;;;;;5008958;28;20438;-43
2023/01/05 03:38:47;;;;;;;37.37;5.27;;;;;;;;;;5009847;28;20474;-45
2023/01/05 03:41:14;;;;;;;21.83;5.10;;;;;;;;;;5012394;28;20434;-42
2023/01/05 03:43:41;;;;;;;14.07;4.43;;;;;;;;;;5006872;28;20859;-42
2023/01/05 03:46:18;;;;;;;17.00;4.93;;;;;;;;;;5012603;28;20490;-42
2023/01/05 03:48:44;;;;;;;16.20;4.73;;;;;;;;;;5012824;28;21025;-44
2023/01/05 03:51:10;;;;;;;20.47;4.17;;;;;;;;;;5013129;28;20430;-44
2023/01/05 03:53:36;;;;;;;17.10;4.47;;;;;;;;;;5009639;28;20458;-41
2023/01/05 03:56:02;;;;;;;25.03;5.93;;;;;;;;;;5012759;28;20419;-42
2023/01/05 03:58:28;;;;;;;26.53;5.67;;;;;;;;;;5012686;28;20442;-42
2023/01/05 04:00:54;;;;;;;19.93;5.23;;;;;;;;;;5012145;28;20411;-41
2023/01/05 04:03:20;;;;;;;13.97;5.20;;;;;;;;;;5011234;28;20454;-42
2023/01/05 04:05:46;;;;;;;15.33;5.03;;;;;;;;;;5012798;28;20415;-42
2023/01/05 04:08:12;;;;;;;12.50;4.37;;;;;;;;;;5011772;28;20969;-41
2023/01/05 04:10:38;;;;;;;13.97;4.00;;;;;;;;;;5008559;28;20506;-42
2023/01/05 04:13:04;;;;;;;18.93;6.07;;;;;;;;;;5012653;28;20425;-42
2023/01/05 04:15:30;;;;;;;12.73;4.70;;;;;;;;;;5012709;28;20422;-43
2023/01/05 04:17:56;;;;;;;20.10;4.30;;;;;;;;;;5010504;28;20447;-41
2023/01/05 04:20:22;;;;;;;10.57;4.70;;;;;;;;;;5012628;28;20784;-42
2023/01/05 04:22:48;;;;;;;29.73;6.73;;;;;;;;;;5007506;28;20788;-42
2023/01/05 04:25:14;;;;;;;25.63;5.67;;;;;;;;;;5012380;28;20414;-42
2023/01/05 04:27:40;;;;;;;16.70;4.87;;;;;;;;;;5012316;28;20464;-41
2023/01/05 04:30:06;;;;;;;13.53;5.30;;;;;;;;;;5012047;28;20836;-42
2023/01/05 04:32:32;;;;;;;25.07;5.90;;;;;;;;;;5010796;28;20772;-42
2023/01/05 04:34:58;;;;;;;25.03;6.10;;;;;;;;;;5012396;28;20451;-42
2023/01/05 04:37:24;;;;;;;28.30;6.63;;;;;;;;;;5012086;28;20418;-43
2023/01/05 04:39:50;;;;;;;17.80;5.17;;;;;;;;;;5005590;28;20980;-42
2023/01/05 04:42:16;;;;;;;12.70;5.20;;;;;;;;;;5012154;28;20414;-43
2023/01/05 04:44:42;;;;;;;27.80;5.73;;;;;;;;;;5015977;28;20806;-42
2023/01/05 04:47:08;;;;;;;17.40;5.43;;;;;;;;;;5011902;28;20441;-45
2023/01/05 04:49:34;;;;;;;18.73;6.10;;;;;;;;;;5012082;28;20439;-42
2023/01/05 04:52:00;;;;;;;18.33;6.00;;;;;;;;;;5011882;28;20438;-42
2023/01/05 04:54:26;;;;;;;20.53;6.47;;;;;;;;;;5011799;28;20508;-42
2023/01/05 04:56:52;;;;;;;29.10;6.30;;;;;;;;;;5012067;28;20414;-42
2023/01/05 04:59:18;;;;;;;19.27;6.60;;;;;;;;;;5010090;28;20433;-42
2023/01/05 05:01:44;;;;;;;24.27;5.30;;;;;;;;;;5011878;28;20977;-43
2023/01/05 05:04:10;;;;;;;22.43;5.53;;;;;;;;;;5011483;28;20407;-43
2023/01/05 05:06:36;;;;;;;12.43;5.53;;;;;;;;;;5007506;28;20903;-43
2023/01/05 05:09:02;;;;;;;26.43;5.43;;;;;;;;;;5011355;28;20809;-43
2023/01/05 05:11:28;;;;;;;18.00;4.50;;;;;;;;;;5011965;28;20423;-41
2023/01/05 05:13:54;;;;;;;16.10;5.07;;;;;;;;;;5009147;28;20458;-42
2023/01/05 05:16:19;;;;;;;20.10;5.60;;;;;;;;;;5011431;28;20422;-41
2023/01/05 05:18:46;;;;;;;24.10;5.00;;;;;;;;;;5006427;28;20435;-42
2023/01/05 05:21:12;;;;;;;21.93;5.47;;;;;;;;;;5011784;28;20395;-42
2023/01/05 05:23:38;;;;;;;20.07;5.00;;;;;;;;;;5011610;28;20404;-42
2023/01/05 05:26:04;;;;;;;10.67;4.43;;;;;;;;;;5003647;28;20493;-42
2023/01/05 05:28:30;;;;;;;20.93;5.03;;;;;;;;;;5009953;28;20442;-42
2023/01/05 05:30:56;;;;;;;23.97;5.70;;;;;;;;;;5011638;28;20415;-43
2023/01/05 05:33:22;;;;;;;18.60;4.50;;;;;;;;;;5006788;28;20465;-42
2023/01/05 05:35:48;;;;;;;25.73;5.47;;;;;;;;;;5011303;28;20425;-43
2023/01/05 05:38:14;;;;;;;14.10;7.30;;;;;;;;;;5011123;28;20431;-42
2023/01/05 05:40:40;;;;;;;10.30;4.33;;;;;;;;;;5011621;28;20417;-42
2023/01/05 05:43:06;;;;;;;19.37;5.10;;;;;;;;;;5011524;28;20494;-43
2023/01/05 05:45:32;;;;;;;30.20;5.73;;;;;;;;;;5008158;28;20473;-43
2023/01/05 05:48:00;;;;;;;29.95;6.63;;;;;;;;;;5010693;28;20796;-42
2023/01/05 05:50:26;;;;;;;21.67;5.97;;;;;;;;;;5011242;28;20184;-42
2023/01/05 05:52:52;;;;;;;13.00;5.87;;;;;;;;;;5003175;28;20977;-43
2023/01/05 05:55:18;;;;;;;19.67;5.07;;;;;;;;;;5011500;28;20560;-42
2023/01/05 05:57:44;;;;;;;21.73;5.87;;;;;;;;;;5008000;28;20435;-45
2023/01/05 06:00:10;;;;;;;25.17;6.73;;;;;;;;;;5011609;28;20439;-43
2023/01/05 06:02:36;;;;;;;26.63;6.33;;;;;;;;;;5011557;28;20399;-42
2023/01/05 06:05:02;;;;;;;25.37;8.27;;;;;;;;;;5004947;28;20407;-43
2023/01/05 06:07:28;;;;;;;17.90;5.77;;;;;;;;;;5011072;28;20421;-43
2023/01/05 06:09:54;;;;;;;24.90;5.67;;;;;;;;;;5011438;28;20828;-41
2023/01/05 06:12:20;;;;;;;18.67;5.97;;;;;;;;;;5008315;28;20413;-41
2023/01/05 06:14:46;;;;;;;18.93;7.83;;;;;;;;;;5011298;28;20526;-42
2023/01/05 06:17:12;;;;;;;28.43;7.03;;;;;;;;;;5009383;28;20407;-42
2023/01/05 06:19:38;;;;;;;25.20;6.43;;;;;;;;;;5007015;28;20426;-42
2023/01/05 06:22:04;;;;;;;17.33;8.10;;;;;;;;;;5011315;28;20839;-42
2023/01/05 06:24:29;;;;;;;20.10;6.10;;;;;;;;;;5013751;28;20818;-42
2023/01/05 06:26:55;;;;;;;27.50;6.47;;;;;;;;;;5011713;28;20422;-43
2023/01/05 06:29:21;;;;;;;18.87;6.33;;;;;;;;;;5014679;28;20537;-43
2023/01/05 06:31:47;;;;;;;24.83;7.60;;;;;;;;;;5008723;28;20416;-42
2023/01/05 06:34:13;;;;;;;15.33;6.30;;;;;;;;;;5014713;28;20497;-43
2023/01/05 06:36:39;;;;;;;31.40;7.17;;;;;;;;;;5014879;28;20408;-42
2023/01/05 06:39:05;;;;;;;39.60;7.53;;;;;;;;;;5014415;28;20473;-42
2023/01/05 06:41:34;;;;;;;22.63;7.13;;;;;;;;;;5014790;28;20453;-42
2023/01/05 06:43:59;;;;;;;30.87;8.40;;;;;;;;;;5010127;28;20524;-43
2023/01/05 06:46:25;;;;;;;21.70;7.87;;;;;;;;;;5014917;28;20444;-42
2023/01/05 06:48:51;;;;;;;26.07;6.97;;;;;;;;;;5006478;28;20447;-42
2023/01/05 06:51:17;;;;;;;24.37;8.00;;;;;;;;;;5013503;28;20848;-43
2023/01/05 06:53:44;;;;;;;18.87;7.10;;;;;;;;;;5014585;28;20483;-42
2023/01/05 06:56:10;;;;;;;25.90;8.10;;;;;;;;;;5014620;28;20482;-43
2023/01/05 06:58:36;;;;;;;26.13;8.13;;;;;;;;;;5010049;28;20419;-42
2023/01/05 07:01:02;;;;;;;28.40;8.60;;;;;;;;;;5014372;28;20862;-43
2023/01/05 07:03:28;;;;;;;28.33;9.23;;;;;;;;;;5014011;28;20423;-43
2023/01/05 07:05:54;;;;;;;29.50;9.50;;;;;;;;;;5012817;28;20497;-43
2023/01/05 07:08:20;;;;;;;29.97;9.00;;;;;;;;;;5014085;28;20469;-44
2023/01/05 07:10:46;;;;;;;30.77;8.33;;;;;;;;;;5009822;28;20415;-43
2023/01/05 07:13:12;;;;;;;21.30;8.87;;;;;;;;;;5014195;28;20895;-42
2023/01/05 07:15:38;;;;;;;19.93;8.30;;;;;;;;;;5014243;28;20406;-42
2023/01/05 07:18:04;;;;;;;30.17;9.73;;;;;;;;;;5005720;28;20467;-42
2023/01/05 07:20:30;;;;;;;24.37;8.70;;;;;;;;;;5012784;28;20426;-42
2023/01/05 07:22:56;;;;;;;26.80;9.97;;;;;;;;;;5013958;28;20435;-42
2023/01/05 07:25:22;;;;;;;23.77;9.20;;;;;;;;;;5009180;28;20417;-42
2023/01/05 07:27:51;;;;;;;30.33;9.70;;;;;;;;;;5013392;28;20442;-43
2023/01/05 07:30:17;;;;;;;25.43;9.50;;;;;;;;;;5009729;28;20473;-42
2023/01/05 07:32:43;;;;;;;34.07;10.50;;;;;;;;;;5009363;28;20422;-43
2023/01/05 07:35:09;;;;;;;25.77;10.63;;;;;;;;;;5013610;28;20454;-42
2023/01/05 07:37:35;;;;;;;40.47;11.63;;;;;;;;;;5010472;28;20448;-43
2023/01/05 07:40:01;;;;;;;33.33;11.10;;;;;;;;;;5009180;28;20418;-43
2023/01/05 07:42:27;;;;;;;29.90;10.97;;;;;;;;;;5013431;28;20866;-43
2023/01/05 07:44:53;;;;;;;27.67;10.60;;;;;;;;;;5005803;28;20450;-43
2023/01/05 07:47:19;;;;;;;27.73;10.47;;;;;;;;;;5011897;28;20453;-43
2023/01/05 07:49:45;;;;;;;30.63;11.23;;;;;;;;;;5013087;28;20480;-43
2023/01/05 07:52:11;;;;;;;27.87;10.70;;;;;;;;;;5013331;28;20414;-42
2023/01/05 07:54:37;;;;;;;28.33;11.17;;;;;;;;;;5008979;28;20469;-42
2023/01/05 07:57:03;;;;;;;47.80;13.17;;;;;;;;;;5012987;28;20411;-43
2023/01/05 07:59:29;;;;;;;25.67;11.10;;;;;;;;;;5005356;28;20465;-42
2023/01/05 08:01:55;;;;;;;41.00;12.70;;;;;;;;;;5011750;28;20434;-43
2023/01/05 08:04:21;;;;;;;43.33;12.10;;;;;;;;;;5012866;28;20494;-43
2023/01/05 08:06:47;;;;;;;32.83;13.47;;;;;;;;;;5008554;28;20419;-43
2023/01/05 08:11:57;;;;;;;34.17;11.20;;;;;;;;;;5012111;28;20781;-42
2023/01/05 08:14:23;;;;;;;43.00;11.60;;;;;;;;;;5006630;28;21001;-42
2023/01/05 08:16:49;;;;;;;32.07;11.63;;;;;;;;;;5011770;28;20414;-43
2023/01/05 08:19:15;;;;;;;27.60;10.97;;;;;;;;;;5012487;28;20485;-44
2023/01/05 08:21:41;;;;;;;26.67;9.77;;;;;;;;;;5008557;28;20479;-42
2023/01/05 08:24:07;;;;;;;45.03;10.40;;;;;;;;;;5012605;28;20410;-42
2023/01/05 08:26:33;;;;;;;33.20;10.50;;;;;;;;;;5007067;28;20419;-41
2023/01/05 08:29:00;;;;;;;31.90;11.10;;;;;;;;;;5009941;28;20455;-42
2023/01/05 08:31:29;;;;;;;26.80;9.67;;;;;;;;;;5012541;28;20809;-42
2023/01/05 08:33:58;;;;;;;28.63;9.17;;;;;;;;;;5012573;28;20454;-42
2023/01/05 08:36:25;;;;;;;25.00;8.90;;;;;;;;;;5008359;28;20423;-42
2023/01/05 08:38:51;;;;;;;32.27;10.40;;;;;;;;;;5011951;28;20827;-44
2023/01/05 08:41:22;;;;;;;41.30;9.73;;;;;;;;;;5012183;28;20426;-43
2023/01/05 08:43:52;;;;;;;22.43;9.23;;;;;;;;;;5012386;28;20514;-42
2023/01/05 08:46:19;;;;;;;41.00;9.87;;;;;;;;;;5008163;28;20427;-43
2023/01/05 08:48:47;;;;;;;30.33;10.80;;;;;;;;;;5011846;28;20950;-42
2023/01/05 08:51:13;;;;;;;23.80;8.20;;;;;;;;;;5010498;28;20430;-42
2023/01/05 08:53:39;;;;;;;46.10;10.60;;;;;;;;;;5008232;28;20467;-42
2023/01/05 08:56:05;;;;;;;34.07;8.97;;;;;;;;;;5017423;28;20454;-42
2023/01/05 08:58:31;;;;;;;36.53;9.80;;;;;;;;;;5011889;28;20427;-42
2023/01/05 09:00:57;;;;;;;44.67;10.53;;;;;;;;;;5012029;28;20410;-43
2023/01/05 09:03:23;;;;;;;36.63;10.87;;;;;;;;;;5011966;28;20476;-42
2023/01/05 09:05:52;;;;;;;36.67;9.90;;;;;;;;;;5011831;28;20410;-43
2023/01/05 09:08:18;;;;;;;25.03;11.60;;;;;;;;;;5007608;28;20448;-43
2023/01/05 09:10:44;;;;;;;23.63;9.33;;;;;;;;;;5006496;28;20426;-43
2023/01/05 09:13:10;;;;;;;42.10;11.65;;;;;;;;;;5011743;28;20407;-42
2023/01/05 09:15:36;;;;;;;30.37;10.30;;;;;;;;;;5008936;28;20415;-41
2023/01/05 09:18:02;;;;;;;38.60;10.60;;;;;;;;;;4993499;28;20547;-42
2023/01/05 09:20:28;;;;;;;23.20;10.20;;;;;;;;;;5006743;28;20415;-43
2023/01/05 09:22:54;;;;;;;33.30;10.90;;;;;;;;;;5011627;28;20419;-42
2023/01/05 09:25:20;;;;;;;39.73;10.60;;;;;;;;;;5011664;28;20447;-42
2023/01/05 09:27:46;;;;;;;39.30;10.70;;;;;;;;;;5009098;28;20491;-43
2023/01/05 09:30:14;;;;;;;40.00;10.90;;;;;;;;;;5012146;28;20461;-43
2023/01/05 09:32:40;;;;;;;30.87;11.10;;;;;;;;;;5008003;28;20423;-41
2023/01/05 09:35:06;;;;;;;32.30;10.73;;;;;;;;;;5006120;28;20467;-42
2023/01/05 09:37:32;;;;;;;34.57;9.97;;;;;;;;;;5011269;28;20461;-41
2023/01/05 09:39:58;;;;;;;39.40;13.00;;;;;;;;;;5011711;28;20411;-42
2023/01/05 09:42:26;;;;;;;31.10;10.00;;;;;;;;;;5009127;28;20498;-42
2023/01/05 09:44:55;;;;;;;34.77;11.47;;;;;;;;;;5011472;28;20419;-41
2023/01/05 09:47:24;;;;;;;39.43;12.23;;;;;;;;;;5008684;28;20929;-41
2023/01/05 09:49:51;;;;;;;32.20;11.87;;;;;;;;;;5008104;28;20454;-42
2023/01/05 09:52:18;;;;;;;27.53;10.30;;;;;;;;;;4991949;28;20412;-42
2023/01/05 09:54:44;;;;;;;31.70;11.13;;;;;;;;;;5008815;28;20520;-43
2023/01/05 09:57:21;;;;;;;26.03;10.07;;;;;;;;;;4997352;28;20416;-43
2023/01/05 09:59:52;;;;;;;31.67;11.97;;;;;;;;;;5007299;28;20450;-42
2023/01/05 10:02:24;;;;;;;31.50;11.13;;;;;;;;;;5015163;28;20426;-42
2023/01/05 10:04:50;;;;;;;40.77;12.17;;;;;;;;;;5015064;28;20430;-42
2023/01/05 10:07:19;;;;;;;28.87;10.23;;;;;;;;;;5014679;28;20462;-43
2023/01/05 10:09:46;;;;;;;31.27;10.23;;;;;;;;;;5015119;28;20457;-42
2023/01/05 10:15:06;;;;;;;37.87;11.10;;;;;;;;;;4995772;28;20490;-42
2023/01/05 10:17:35;;;;;;;28.87;10.53;;;;;;;;;;4995759;28;20433;-42
2023/01/05 10:20:01;;;;;;;25.03;9.73;;;;;;;;;;4995018;28;20410;-43
2023/01/05 10:22:31;;;;;;;25.17;9.87;;;;;;;;;;5014625;28;20890;-43
2023/01/05 10:25:09;;;;;;;32.90;10.60;;;;;;;;;;5013725;28;20778;-43
2023/01/05 10:27:39;;;;;;;27.10;9.73;;;;;;;;;;5014271;28;20431;-43
2023/01/05 10:30:20;;;;;;;31.57;10.90;;;;;;;;;;5014541;28;20783;-43
2023/01/05 10:32:56;;;;;;;34.20;9.57;;;;;;;;;;5014467;28;20473;-43
2023/01/05 10:35:41;;;;;;;32.17;8.47;;;;;;;;;;5014635;28;20493;-42
2023/01/05 10:38:19;;;;;;;33.57;10.20;;;;;;;;;;5014103;28;20912;-43
2023/01/05 10:40:45;;;;;;;26.80;7.10;;;;;;;;;;5014143;28;20414;-43
2023/01/05 10:43:14;;;;;;;29.93;8.80;;;;;;;;;;5014473;28;20770;-43
2023/01/05 10:45:40;;;;;;;24.23;7.80;;;;;;;;;;5014381;28;20474;-42
2023/01/05 10:48:14;;;;;;;23.97;8.03;;;;;;;;;;5014038;28;20481;-43
2023/01/05 10:50:41;;;;;;;24.77;7.43;;;;;;;;;;5014058;28;20447;-43
2023/01/05 10:53:12;;;;;;;22.47;7.77;;;;;;;;;;5014218;28;20424;-43
2023/01/05 10:55:43;;;;;;;32.23;7.57;;;;;;;;;;5014192;28;20795;-43
2023/01/05 10:58:29;;;;;;;20.63;6.50;;;;;;;;;;5006000;28;20837;-43
2023/01/05 11:01:06;;;;;;;22.63;6.20;;;;;;;;;;4994326;28;20449;-43
2023/01/05 11:03:43;;;;;;;27.40;6.00;;;;;;;;;;4994501;28;20419;-43
2023/01/05 11:06:18;;;;;;;23.57;6.40;;;;;;;;;;4999659;28;20929;-43
2023/01/05 11:08:44;;;;;;;23.40;5.70;;;;;;;;;;5013501;28;20704;-43
2023/01/05 11:11:10;;;;;;;25.03;7.13;;;;;;;;;;5013369;28;20829;-43
2023/01/05 11:13:37;;;;;;;25.67;6.67;;;;;;;;;;4994195;28;20902;-43
2023/01/05 11:16:06;;;;;;;17.43;5.83;;;;;;;;;;4994114;28;20887;-43
2023/01/05 11:18:40;;;;;;;26.17;6.17;;;;;;;;;;4993315;28;20464;-42
2023/01/05 11:21:07;;;;;;;23.27;6.23;;;;;;;;;;4992906;28;20909;-42
2023/01/05 11:23:38;;;;;;;19.97;5.87;;;;;;;;;;4993068;28;20487;-43
2023/01/05 11:26:17;;;;;;;26.90;6.20;;;;;;;;;;4992576;28;20447;-43
2023/01/05 11:29:01;;;;;;;29.03;6.50;;;;;;;;;;4992355;28;20448;-43
2023/01/05 11:31:31;;;;;;;18.90;6.50;;;;;;;;;;5007743;28;20418;-43
2023/01/05 11:33:58;;;;;;;15.37;5.50;;;;;;;;;;5011464;28;20960;-43
2023/01/05 11:36:24;;;;;;;27.07;7.10;;;;;;;;;;5013340;28;20411;-43
2023/01/05 11:38:54;;;;;;;16.63;6.17;;;;;;;;;;5013072;28;20421;-44
2023/01/05 11:41:21;;;;;;;22.77;7.00;;;;;;;;;;5008283;28;20428;-43
2023/01/05 11:43:48;;;;;;;26.20;6.03;;;;;;;;;;5013242;28;20419;-43
2023/01/05 11:46:15;;;;;;;29.17;5.57;;;;;;;;;;5013300;28;20411;-43
2023/01/05 11:48:49;;;;;;;22.67;5.87;;;;;;;;;;5011164;28;21114;-43
2023/01/05 11:51:34;;;;;;;29.50;5.83;;;;;;;;;;5002577;28;20435;-43
2023/01/05 11:54:00;;;;;;;17.90;5.97;;;;;;;;;;5013035;28;20458;-43
2023/01/05 11:56:26;;;;;;;20.60;5.80;;;;;;;;;;5012771;28;20419;-43
2023/01/05 11:58:53;;;;;;;21.53;6.00;;;;;;;;;;5012650;28;20514;-43
2023/01/05 12:01:38;;;;;;;15.03;5.97;;;;;;;;;;5012929;28;20498;-43
2023/01/05 12:04:19;;;;;;;18.83;6.00;;;;;;;;;;5011807;28;20427;-43
2023/01/05 12:06:59;;;;;;;17.83;5.97;;;;;;;;;;5009041;28;20405;-43
2023/01/05 12:09:30;;;;;;;24.03;5.20;;;;;;;;;;5006922;28;20438;-43
2023/01/05 12:11:56;;;;;;;16.67;4.60;;;;;;;;;;5011901;28;20931;-43
2023/01/05 12:14:33;;;;;;;25.70;6.07;;;;;;;;;;5012137;28;20463;-43
2023/01/05 12:17:01;;;;;;;17.33;4.93;;;;;;;;;;5010133;28;20417;-42
2023/01/05 12:19:27;;;;;;;18.20;5.00;;;;;;;;;;5011977;28;20437;-43
2023/01/05 12:22:11;;;;;;;26.80;7.57;;;;;;;;;;5006251;28;20961;-43
2023/01/05 12:24:37;;;;;;;26.83;5.27;;;;;;;;;;5012054;28;20420;-43
2023/01/05 12:27:12;;;;;;;18.60;4.77;;;;;;;;;;5011605;28;20420;-43
2023/01/05 12:29:41;;;;;;;21.47;5.93;;;;;;;;;;5010955;28;20850;-43
2023/01/05 12:32:13;;;;;;;31.27;5.87;;;;;;;;;;5011828;28;20411;-43
2023/01/05 12:34:49;;;;;;;12.27;5.10;;;;;;;;;;5011730;28;20522;-43
2023/01/05 12:37:19;;;;;;;15.57;3.67;;;;;;;;;;5009208;28;20449;-43
2023/01/05 12:39:45;;;;;;;24.33;5.37;;;;;;;;;;5005107;28;20462;-43
2023/01/05 12:42:26;;;;;;;21.27;4.10;;;;;;;;;;5011806;28;20404;-43
2023/01/05 12:44:52;;;;;;;16.73;3.93;;;;;;;;;;5011535;28;20447;-43
2023/01/05 12:47:18;;;;;;;28.07;5.63;;;;;;;;;;5008071;28;20506;-43
2023/01/05 12:49:50;;;;;;;13.07;3.83;;;;;;;;;;5011452;28;20533;-43
2023/01/05 12:52:21;;;;;;;16.33;4.60;;;;;;;;;;5008887;28;20511;-43
2023/01/05 12:55:26;;;;;;;12.63;4.10;;;;;;;;;;5007594;28;20514;-43
2023/01/05 12:57:57;;;;;;;18.17;4.37;;;;;;;;;;4940229;29;20547;-43
2023/01/05 13:00:24;;;;;;;18.67;4.13;;;;;;;;;;4942803;29;20415;-43
2023/01/05 13:02:52;;;;;;;16.93;4.03;;;;;;;;;;4978686;28;20409;-43
2023/01/05 13:05:21;;;;;;;15.87;4.63;;;;;;;;;;5011460;28;20482;-43
2023/01/05 13:07:51;;;;;;;18.53;4.47;;;;;;;;;;5004383;28;20543;-43
2023/01/05 13:10:32;;;;;;;19.73;4.30;;;;;;;;;;5012028;28;20423;-43
2023/01/05 13:13:00;;;;;;;11.43;3.77;;;;;;;;;;5011803;28;20423;-43
2023/01/05 13:15:33;;;;;;;19.80;3.90;;;;;;;;;;5008780;28;20464;-43
2023/01/05 13:18:00;;;;;;;17.23;4.50;;;;;;;;;;5011206;28;20952;-43
2023/01/05 13:20:26;;;;;;;13.37;3.40;;;;;;;;;;5007677;28;20451;-44
2023/01/05 13:22:54;;;;;;;11.77;3.63;;;;;;;;;;5009203;28;20434;-43
2023/01/05 13:25:28;;;;;;;19.60;3.90;;;;;;;;;;5011668;28;20418;-43
2023/01/05 13:27:54;;;;;;;19.90;4.87;;;;;;;;;;5011279;28;20898;-43
2023/01/05 13:30:25;;;;;;;14.33;4.70;;;;;;;;;;5008552;28;20416;-43
2023/01/05 13:33:10;;;;;;;14.13;4.10;;;;;;;;;;5013052;28;20854;-43
2023/01/05 13:35:45;;;;;;;17.07;4.00;;;;;;;;;;5009246;28;20839;-43
2023/01/05 13:38:23;;;;;;;22.70;3.90;;;;;;;;;;4999443;28;20428;-43
2023/01/05 13:41:02;;;;;;;14.47;4.53;;;;;;;;;;5014037;28;20925;-43
2023/01/05 13:43:34;;;;;;;17.93;3.47;;;;;;;;;;5015697;28;20911;-43
2023/01/05 13:46:12;;;;;;;15.03;4.27;;;;;;;;;;5011000;28;20506;-43
2023/01/05 13:48:55;;;;;;;16.73;4.40;;;;;;;;;;5015223;28;20468;-43
2023/01/05 13:51:30;;;;;;;16.77;5.60;;;;;;;;;;5008814;28;20850;-43
2023/01/05 13:53:57;;;;;;;18.83;5.50;;;;;;;;;;5015023;28;20462;-43
2023/01/05 13:56:25;;;;;;;21.83;6.60;;;;;;;;;;5015278;28;20503;-42
2023/01/05 13:58:53;;;;;;;28.53;6.70;;;;;;;;;;5014910;28;20818;-44
2023/01/05 14:01:32;;;;;;;17.00;6.20;;;;;;;;;;5010517;28;20428;-43
2023/01/05 14:03:58;;;;;;;19.03;6.40;;;;;;;;;;5015174;28;20413;-43
2023/01/05 14:06:26;;;;;;;19.43;7.47;;;;;;;;;;5007313;28;20464;-43
2023/01/05 14:09:03;;;;;;;27.87;7.00;;;;;;;;;;5013404;28;20507;-43
2023/01/05 14:11:29;;;;;;;23.60;6.97;;;;;;;;;;5015116;28;20425;-43
2023/01/05 14:14:07;;;;;;;21.37;7.20;;;;;;;;;;5010257;28;20779;-43
2023/01/05 14:16:33;;;;;;;24.03;7.07;;;;;;;;;;5015028;28;20455;-43
2023/01/05 14:19:08;;;;;;;22.60;6.60;;;;;;;;;;5014512;28;20436;-43
2023/01/05 14:21:59;;;;;;;32.30;7.83;;;;;;;;;;5014909;28;20419;-43
2023/01/05 14:24:36;;;;;;;12.17;6.30;;;;;;;;;;5008790;28;20908;-43
2023/01/05 14:27:05;;;;;;;15.97;6.30;;;;;;;;;;5014598;28;20438;-43
2023/01/05 14:29:46;;;;;;;15.97;7.17;;;;;;;;;;5010078;28;20806;-43
2023/01/05 14:32:22;;;;;;;18.03;8.10;;;;;;;;;;5013143;28;20413;-43
2023/01/05 14:34:49;;;;;;;20.60;7.17;;;;;;;;;;5006634;28;20454;-43
2023/01/05 14:37:36;;;;;;;20.73;6.70;;;;;;;;;;5012951;28;20415;-43
2023/01/05 14:40:13;;;;;;;20.97;6.97;;;;;;;;;;5014493;28;20440;-43
2023/01/05 14:42:39;;;;;;;20.70;8.40;;;;;;;;;;5010111;28;20433;-43
2023/01/05 14:45:07;;;;;;;18.00;6.57;;;;;;;;;;5013467;28;20912;-43
2023/01/05 14:47:36;;;;;;;20.07;6.80;;;;;;;;;;5007870;28;20429;-43
2023/01/05 14:50:02;;;;;;;22.33;7.27;;;;;;;;;;5012116;28;20752;-44
2023/01/05 14:52:47;;;;;;;31.63;7.37;;;;;;;;;;5014350;28;20425;-43
2023/01/05 14:55:39;;;;;;;29.00;6.60;;;;;;;;;;5006278;28;20491;-43
2023/01/05 14:58:15;;;;;;;19.53;6.50;;;;;;;;;;5002791;28;20428;-43
2023/01/05 15:00:55;;;;;;;14.87;5.73;;;;;;;;;;5014201;28;20411;-43
2023/01/05 15:03:25;;;;;;;19.80;6.77;;;;;;;;;;5007654;28;20490;-43
2023/01/05 15:06:06;;;;;;;24.87;6.03;;;;;;;;;;5013819;28;20515;-43
2023/01/05 15:08:50;;;;;;;20.63;6.77;;;;;;;;;;5010925;28;20435;-43
2023/01/05 15:11:24;;;;;;;17.20;6.23;;;;;;;;;;5011216;28;20500;-43
2023/01/05 15:16:44;;;;;;;21.33;8.00;;;;;;;;;;5013930;28;20455;-43